sensor_id;sensor_type;location;lat;lon;timestamp;P1;durP1;ratioP1;P2;durP2;ratioP2
1446;SDS011;717;51.522;7.266;2023-03-21T00:01:05;9.45;;;5.65;;
1446;SDS011;717;51.522;7.266;2023-03-21T00:03:34;11.98;;;6.82;;
1446;SDS011;717;51.522;7.266;2023-03-21T00:06:06;10.05;;;6.25;;
1446;SDS011;717;51.522;7.266;2023-03-21T00:08:37;12.52;;;6.15;;
1446;SDS011;717;51.522;7.266;2023-03-21T00:11:08;10.82;;;6.97;;
1446;SDS011;717;51.522;7.266;2023-03-21T00:13:38;10.82;;;6.03;;
1446;SDS011;717;51.522;7.266;2023-03-21T00:16:11;11.52;;;6.13;;
1446;SDS011;717;51.522;7.266;2023-03-21T00:18:42;9.13;;;5.80;;
1446;SDS011;717;51.522;7.266;2023-03-21T00:21:11;10.80;;;5.85;;
1446;SDS011;717;51.522;7.266;2023-03-21T00:23:43;13.90;;;5.22;;
1446;SDS011;717;51.522;7.266;2023-03-21T00:26:13;9.38;;;5.43;;
1446;SDS011;717;51.522;7.266;2023-03-21T00:28:42;12.30;;;5.50;;
1446;SDS011;717;51.522;7.266;2023-03-21T00:31:13;9.88;;;5.85;;
1446;SDS011;717;51.522;7.266;2023-03-21T00:33:42;11.55;;;5.53;;
1446;SDS011;717;51.522;7.266;2023-03-21T00:36:11;8.52;;;4.80;;
1446;SDS011;717;51.522;7.266;2023-03-21T00:38:40;8.55;;;4.70;;
1446;SDS011;717;51.522;7.266;2023-03-21T00:41:10;10.02;;;5.47;;
1446;SDS011;717;51.522;7.266;2023-03-21T00:43:40;12.23;;;5.30;;
1446;SDS011;717;51.522;7.266;2023-03-21T00:46:08;12.05;;;4.78;;
1446;SDS011;717;51.522;7.266;2023-03-21T00:48:39;8.73;;;4.70;;
1446;SDS011;717;51.522;7.266;2023-03-21T00:51:11;12.90;;;5.07;;
1446;SDS011;717;51.522;7.266;2023-03-21T00:53:45;7.95;;;3.95;;
1446;SDS011;717;51.522;7.266;2023-03-21T00:56:14;12.02;;;4.65;;
1446;SDS011;717;51.522;7.266;2023-03-21T00:58:42;9.50;;;4.63;;
1446;SDS011;717;51.522;7.266;2023-03-21T01:01:11;9.27;;;5.10;;
1446;SDS011;717;51.522;7.266;2023-03-21T01:03:42;11.43;;;4.30;;
1446;SDS011;717;51.522;7.266;2023-03-21T01:06:15;7.40;;;4.13;;
1446;SDS011;717;51.522;7.266;2023-03-21T01:08:47;9.35;;;4.55;;
1446;SDS011;717;51.522;7.266;2023-03-21T01:11:17;8.75;;;4.30;;
1446;SDS011;717;51.522;7.266;2023-03-21T01:13:47;12.88;;;4.78;;
1446;SDS011;717;51.522;7.266;2023-03-21T01:16:16;8.10;;;4.43;;
1446;SDS011;717;51.522;7.266;2023-03-21T01:18:47;9.15;;;4.32;;
1446;SDS011;717;51.522;7.266;2023-03-21T01:21:16;9.02;;;4.43;;
1446;SDS011;717;51.522;7.266;2023-03-21T01:23:45;9.60;;;5.30;;
1446;SDS011;717;51.522;7.266;2023-03-21T01:26:15;8.35;;;4.88;;
1446;SDS011;717;51.522;7.266;2023-03-21T01:28:44;11.13;;;4.78;;
1446;SDS011;717;51.522;7.266;2023-03-21T01:31:13;7.95;;;4.30;;
1446;SDS011;717;51.522;7.266;2023-03-21T01:33:43;12.70;;;5.80;;
1446;SDS011;717;51.522;7.266;2023-03-21T01:36:16;9.98;;;4.95;;
1446;SDS011;717;51.522;7.266;2023-03-21T01:38:45;11.48;;;6.13;;
1446;SDS011;717;51.522;7.266;2023-03-21T01:41:16;9.20;;;5.22;;
1446;SDS011;717;51.522;7.266;2023-03-21T01:43:48;12.15;;;6.10;;
1446;SDS011;717;51.522;7.266;2023-03-21T01:46:21;11.85;;;5.45;;
1446;SDS011;717;51.522;7.266;2023-03-21T01:49:06;8.80;;;5.80;;
1446;SDS011;717;51.522;7.266;2023-03-21T01:51:43;11.02;;;5.10;;
1446;SDS011;717;51.522;7.266;2023-03-21T01:54:15;9.63;;;5.03;;
1446;SDS011;717;51.522;7.266;2023-03-21T01:56:49;9.75;;;5.47;;
1446;SDS011;717;51.522;7.266;2023-03-21T01:59:18;9.30;;;5.32;;
1446;SDS011;717;51.522;7.266;2023-03-21T02:01:52;12.20;;;5.65;;
1446;SDS011;717;51.522;7.266;2023-03-21T02:04:22;10.40;;;6.43;;
1446;SDS011;717;51.522;7.266;2023-03-21T02:06:57;13.43;;;6.05;;
1446;SDS011;717;51.522;7.266;2023-03-21T02:09:30;10.18;;;6.00;;
1446;SDS011;717;51.522;7.266;2023-03-21T02:12:01;12.73;;;7.47;;
1446;SDS011;717;51.522;7.266;2023-03-21T02:14:31;11.55;;;6.97;;
1446;SDS011;717;51.522;7.266;2023-03-21T02:17:04;13.82;;;6.97;;
1446;SDS011;717;51.522;7.266;2023-03-21T02:19:52;12.00;;;7.13;;
1446;SDS011;717;51.522;7.266;2023-03-21T02:23:02;12.50;;;6.78;;
1446;SDS011;717;51.522;7.266;2023-03-21T02:26:06;9.52;;;6.80;;
1446;SDS011;717;51.522;7.266;2023-03-21T02:28:56;15.13;;;6.57;;
1446;SDS011;717;51.522;7.266;2023-03-21T02:31:34;12.27;;;6.63;;
1446;SDS011;717;51.522;7.266;2023-03-21T02:37:18;13.63;;;7.30;;
1446;SDS011;717;51.522;7.266;2023-03-21T02:39:53;10.88;;;6.68;;
1446;SDS011;717;51.522;7.266;2023-03-21T02:42:33;9.63;;;6.78;;
1446;SDS011;717;51.522;7.266;2023-03-21T02:45:12;13.82;;;6.50;;
1446;SDS011;717;51.522;7.266;2023-03-21T02:47:44;14.75;;;7.43;;
1446;SDS011;717;51.522;7.266;2023-03-21T02:50:18;12.65;;;7.00;;
1446;SDS011;717;51.522;7.266;2023-03-21T02:52:56;10.80;;;6.70;;
1446;SDS011;717;51.522;7.266;2023-03-21T02:55:28;10.60;;;6.82;;
1446;SDS011;717;51.522;7.266;2023-03-21T02:57:59;11.68;;;7.13;;
1446;SDS011;717;51.522;7.266;2023-03-21T03:00:30;12.23;;;7.50;;
1446;SDS011;717;51.522;7.266;2023-03-21T03:03:01;11.30;;;6.78;;
1446;SDS011;717;51.522;7.266;2023-03-21T03:05:32;10.02;;;7.60;;
1446;SDS011;717;51.522;7.266;2023-03-21T03:08:13;11.85;;;6.95;;
1446;SDS011;717;51.522;7.266;2023-03-21T03:10:57;12.30;;;7.25;;
1446;SDS011;717;51.522;7.266;2023-03-21T03:13:38;14.43;;;8.98;;
1446;SDS011;717;51.522;7.266;2023-03-21T03:16:19;12.82;;;9.30;;
1446;SDS011;717;51.522;7.266;2023-03-21T03:18:55;14.05;;;8.95;;
1446;SDS011;717;51.522;7.266;2023-03-21T03:21:28;12.00;;;8.05;;
1446;SDS011;717;51.522;7.266;2023-03-21T03:24:02;12.77;;;7.65;;
1446;SDS011;717;51.522;7.266;2023-03-21T03:26:36;11.70;;;7.10;;
1446;SDS011;717;51.522;7.266;2023-03-21T03:29:10;13.68;;;7.63;;
1446;SDS011;717;51.522;7.266;2023-03-21T03:31:41;15.40;;;8.75;;
1446;SDS011;717;51.522;7.266;2023-03-21T03:34:15;14.43;;;8.13;;
1446;SDS011;717;51.522;7.266;2023-03-21T03:36:46;13.30;;;7.70;;
1446;SDS011;717;51.522;7.266;2023-03-21T03:39:23;11.68;;;7.68;;
1446;SDS011;717;51.522;7.266;2023-03-21T03:42:00;14.05;;;7.72;;
1446;SDS011;717;51.522;7.266;2023-03-21T03:44:32;10.95;;;7.80;;
1446;SDS011;717;51.522;7.266;2023-03-21T03:47:03;12.65;;;7.95;;
1446;SDS011;717;51.522;7.266;2023-03-21T03:49:35;14.55;;;7.82;;
1446;SDS011;717;51.522;7.266;2023-03-21T03:52:08;10.60;;;7.60;;
1446;SDS011;717;51.522;7.266;2023-03-21T03:54:43;15.25;;;8.25;;
1446;SDS011;717;51.522;7.266;2023-03-21T03:57:13;11.00;;;7.32;;
1446;SDS011;717;51.522;7.266;2023-03-21T03:59:43;13.90;;;7.80;;
1446;SDS011;717;51.522;7.266;2023-03-21T04:02:13;11.20;;;7.00;;
1446;SDS011;717;51.522;7.266;2023-03-21T04:04:42;12.15;;;8.02;;
1446;SDS011;717;51.522;7.266;2023-03-21T04:07:11;11.13;;;7.10;;
1446;SDS011;717;51.522;7.266;2023-03-21T04:09:42;14.35;;;7.80;;
1446;SDS011;717;51.522;7.266;2023-03-21T04:12:11;11.68;;;7.22;;
1446;SDS011;717;51.522;7.266;2023-03-21T04:14:40;11.45;;;6.70;;
1446;SDS011;717;51.522;7.266;2023-03-21T04:17:09;11.45;;;7.32;;
1446;SDS011;717;51.522;7.266;2023-03-21T04:19:38;14.13;;;7.45;;
1446;SDS011;717;51.522;7.266;2023-03-21T04:22:06;12.20;;;7.00;;
1446;SDS011;717;51.522;7.266;2023-03-21T04:24:36;11.35;;;7.55;;
1446;SDS011;717;51.522;7.266;2023-03-21T04:27:09;13.30;;;7.57;;
1446;SDS011;717;51.522;7.266;2023-03-21T04:29:37;12.57;;;7.75;;
1446;SDS011;717;51.522;7.266;2023-03-21T04:32:06;9.75;;;7.80;;
1446;SDS011;717;51.522;7.266;2023-03-21T04:34:40;13.00;;;7.43;;
1446;SDS011;717;51.522;7.266;2023-03-21T04:37:13;12.68;;;7.20;;
1446;SDS011;717;51.522;7.266;2023-03-21T04:39:43;12.65;;;7.32;;
1446;SDS011;717;51.522;7.266;2023-03-21T04:42:15;13.98;;;7.30;;
1446;SDS011;717;51.522;7.266;2023-03-21T04:44:45;10.10;;;7.05;;
1446;SDS011;717;51.522;7.266;2023-03-21T04:47:15;11.85;;;7.95;;
1446;SDS011;717;51.522;7.266;2023-03-21T04:49:46;10.25;;;6.68;;
1446;SDS011;717;51.522;7.266;2023-03-21T04:52:15;15.13;;;7.15;;
1446;SDS011;717;51.522;7.266;2023-03-21T04:54:44;12.95;;;7.13;;
1446;SDS011;717;51.522;7.266;2023-03-21T04:57:15;11.68;;;7.18;;
1446;SDS011;717;51.522;7.266;2023-03-21T04:59:44;14.20;;;7.78;;
1446;SDS011;717;51.522;7.266;2023-03-21T05:02:13;12.23;;;7.20;;
1446;SDS011;717;51.522;7.266;2023-03-21T05:04:41;12.90;;;7.80;;
1446;SDS011;717;51.522;7.266;2023-03-21T05:07:10;11.85;;;7.93;;
1446;SDS011;717;51.522;7.266;2023-03-21T05:09:39;13.63;;;7.80;;
1446;SDS011;717;51.522;7.266;2023-03-21T05:12:08;11.93;;;8.18;;
1446;SDS011;717;51.522;7.266;2023-03-21T05:14:39;13.10;;;7.75;;
1446;SDS011;717;51.522;7.266;2023-03-21T05:17:08;13.07;;;7.75;;
1446;SDS011;717;51.522;7.266;2023-03-21T05:19:49;13.27;;;8.23;;
1446;SDS011;717;51.522;7.266;2023-03-21T05:22:20;14.52;;;8.93;;
1446;SDS011;717;51.522;7.266;2023-03-21T05:24:51;12.15;;;7.63;;
1446;SDS011;717;51.522;7.266;2023-03-21T05:27:20;13.73;;;7.68;;
1446;SDS011;717;51.522;7.266;2023-03-21T05:30:05;11.48;;;7.70;;
1446;SDS011;717;51.522;7.266;2023-03-21T05:32:35;14.27;;;8.48;;
1446;SDS011;717;51.522;7.266;2023-03-21T05:35:04;14.80;;;7.88;;
1446;SDS011;717;51.522;7.266;2023-03-21T05:37:34;12.85;;;7.45;;
1446;SDS011;717;51.522;7.266;2023-03-21T05:40:03;10.30;;;7.63;;
1446;SDS011;717;51.522;7.266;2023-03-21T05:42:33;14.10;;;7.45;;
1446;SDS011;717;51.522;7.266;2023-03-21T05:45:04;9.82;;;7.53;;
1446;SDS011;717;51.522;7.266;2023-03-21T05:47:33;13.32;;;8.00;;
1446;SDS011;717;51.522;7.266;2023-03-21T05:50:02;10.98;;;7.65;;
1446;SDS011;717;51.522;7.266;2023-03-21T05:52:32;13.45;;;7.43;;
1446;SDS011;717;51.522;7.266;2023-03-21T05:55:01;9.98;;;7.00;;
1446;SDS011;717;51.522;7.266;2023-03-21T05:57:30;13.93;;;7.40;;
1446;SDS011;717;51.522;7.266;2023-03-21T06:00:06;11.57;;;7.18;;
1446;SDS011;717;51.522;7.266;2023-03-21T06:02:36;10.07;;;6.10;;
1446;SDS011;717;51.522;7.266;2023-03-21T06:05:05;11.70;;;7.57;;
1446;SDS011;717;51.522;7.266;2023-03-21T06:07:34;11.13;;;7.32;;
1446;SDS011;717;51.522;7.266;2023-03-21T06:10:04;13.20;;;6.93;;
1446;SDS011;717;51.522;7.266;2023-03-21T06:12:34;12.25;;;7.10;;
1446;SDS011;717;51.522;7.266;2023-03-21T06:15:02;11.93;;;7.28;;
1446;SDS011;717;51.522;7.266;2023-03-21T06:17:35;13.25;;;6.43;;
1446;SDS011;717;51.522;7.266;2023-03-21T06:20:04;10.63;;;6.90;;
1446;SDS011;717;51.522;7.266;2023-03-21T06:22:34;11.35;;;7.53;;
1446;SDS011;717;51.522;7.266;2023-03-21T06:25:04;11.23;;;7.85;;
1446;SDS011;717;51.522;7.266;2023-03-21T06:27:34;11.77;;;7.47;;
1446;SDS011;717;51.522;7.266;2023-03-21T06:30:07;11.73;;;7.10;;
1446;SDS011;717;51.522;7.266;2023-03-21T06:32:37;12.65;;;6.85;;
1446;SDS011;717;51.522;7.266;2023-03-21T06:35:06;12.27;;;7.15;;
1446;SDS011;717;51.522;7.266;2023-03-21T06:37:35;11.65;;;6.65;;
1446;SDS011;717;51.522;7.266;2023-03-21T06:40:04;13.05;;;7.35;;
1446;SDS011;717;51.522;7.266;2023-03-21T06:42:34;12.27;;;7.18;;
1446;SDS011;717;51.522;7.266;2023-03-21T06:45:03;9.98;;;6.97;;
1446;SDS011;717;51.522;7.266;2023-03-21T06:47:35;12.77;;;7.18;;
1446;SDS011;717;51.522;7.266;2023-03-21T06:50:04;11.88;;;7.00;;
1446;SDS011;717;51.522;7.266;2023-03-21T06:52:33;14.75;;;6.93;;
1446;SDS011;717;51.522;7.266;2023-03-21T06:55:02;13.13;;;7.38;;
1446;SDS011;717;51.522;7.266;2023-03-21T06:57:31;11.02;;;7.18;;
1446;SDS011;717;51.522;7.266;2023-03-21T07:00:00;11.07;;;6.57;;
1446;SDS011;717;51.522;7.266;2023-03-21T07:02:29;13.15;;;7.93;;
1446;SDS011;717;51.522;7.266;2023-03-21T07:05:00;11.60;;;6.55;;
1446;SDS011;717;51.522;7.266;2023-03-21T07:07:29;12.30;;;6.85;;
1446;SDS011;717;51.522;7.266;2023-03-21T07:09:58;12.95;;;6.47;;
1446;SDS011;717;51.522;7.266;2023-03-21T07:12:26;13.63;;;6.65;;
1446;SDS011;717;51.522;7.266;2023-03-21T07:14:58;12.85;;;6.82;;
1446;SDS011;717;51.522;7.266;2023-03-21T07:17:27;11.20;;;6.18;;
1446;SDS011;717;51.522;7.266;2023-03-21T07:19:55;11.77;;;6.38;;
1446;SDS011;717;51.522;7.266;2023-03-21T07:22:27;11.30;;;6.30;;
1446;SDS011;717;51.522;7.266;2023-03-21T07:24:55;13.45;;;6.38;;
1446;SDS011;717;51.522;7.266;2023-03-21T07:27:24;13.93;;;6.82;;
1446;SDS011;717;51.522;7.266;2023-03-21T07:29:53;12.18;;;7.00;;
1446;SDS011;717;51.522;7.266;2023-03-21T07:32:21;10.63;;;6.40;;
1446;SDS011;717;51.522;7.266;2023-03-21T07:34:54;9.35;;;6.68;;
1446;SDS011;717;51.522;7.266;2023-03-21T07:37:22;11.10;;;6.22;;
1446;SDS011;717;51.522;7.266;2023-03-21T07:39:54;12.18;;;6.13;;
1446;SDS011;717;51.522;7.266;2023-03-21T07:42:22;11.90;;;5.50;;
1446;SDS011;717;51.522;7.266;2023-03-21T07:44:51;10.52;;;5.63;;
1446;SDS011;717;51.522;7.266;2023-03-21T07:47:19;10.18;;;5.82;;
1446;SDS011;717;51.522;7.266;2023-03-21T07:49:48;12.48;;;5.88;;
1446;SDS011;717;51.522;7.266;2023-03-21T07:52:17;10.07;;;5.75;;
1446;SDS011;717;51.522;7.266;2023-03-21T07:54:45;9.07;;;5.40;;
1446;SDS011;717;51.522;7.266;2023-03-21T07:57:16;9.55;;;5.75;;
1446;SDS011;717;51.522;7.266;2023-03-21T07:59:45;12.45;;;5.70;;
1446;SDS011;717;51.522;7.266;2023-03-21T08:02:14;10.50;;;5.40;;
1446;SDS011;717;51.522;7.266;2023-03-21T08:04:43;10.70;;;5.43;;
1446;SDS011;717;51.522;7.266;2023-03-21T08:07:12;12.93;;;6.15;;
1446;SDS011;717;51.522;7.266;2023-03-21T08:09:41;11.43;;;5.60;;
1446;SDS011;717;51.522;7.266;2023-03-21T08:12:10;10.95;;;5.55;;
1446;SDS011;717;51.522;7.266;2023-03-21T08:14:42;9.98;;;5.45;;
1446;SDS011;717;51.522;7.266;2023-03-21T08:17:10;11.73;;;5.82;;
1446;SDS011;717;51.522;7.266;2023-03-21T08:19:39;9.10;;;5.55;;
1446;SDS011;717;51.522;7.266;2023-03-21T08:22:08;10.77;;;5.80;;
1446;SDS011;717;51.522;7.266;2023-03-21T08:24:36;9.10;;;5.53;;
1446;SDS011;717;51.522;7.266;2023-03-21T08:27:05;10.93;;;5.43;;
1446;SDS011;717;51.522;7.266;2023-03-21T08:29:33;8.73;;;5.20;;
1446;SDS011;717;51.522;7.266;2023-03-21T08:32:07;9.55;;;4.75;;
1446;SDS011;717;51.522;7.266;2023-03-21T08:34:36;8.68;;;5.10;;
1446;SDS011;717;51.522;7.266;2023-03-21T08:37:06;10.48;;;4.90;;
1446;SDS011;717;51.522;7.266;2023-03-21T08:39:35;7.00;;;5.32;;
1446;SDS011;717;51.522;7.266;2023-03-21T08:42:04;11.68;;;4.95;;
1446;SDS011;717;51.522;7.266;2023-03-21T08:44:32;13.05;;;5.22;;
1446;SDS011;717;51.522;7.266;2023-03-21T08:47:03;7.40;;;4.75;;
1446;SDS011;717;51.522;7.266;2023-03-21T08:49:36;8.07;;;5.32;;
1446;SDS011;717;51.522;7.266;2023-03-21T08:52:05;5.60;;;4.40;;
1446;SDS011;717;51.522;7.266;2023-03-21T08:54:33;10.02;;;5.30;;
1446;SDS011;717;51.522;7.266;2023-03-21T08:57:02;11.68;;;5.28;;
1446;SDS011;717;51.522;7.266;2023-03-21T08:59:32;9.93;;;5.10;;
1446;SDS011;717;51.522;7.266;2023-03-21T09:02:01;12.23;;;5.20;;
1446;SDS011;717;51.522;7.266;2023-03-21T09:04:30;9.57;;;5.22;;
1446;SDS011;717;51.522;7.266;2023-03-21T09:07:01;10.95;;;5.00;;
1446;SDS011;717;51.522;7.266;2023-03-21T09:09:30;9.18;;;5.07;;
1446;SDS011;717;51.522;7.266;2023-03-21T09:11:59;9.07;;;5.40;;
1446;SDS011;717;51.522;7.266;2023-03-21T09:14:27;8.25;;;4.72;;
1446;SDS011;717;51.522;7.266;2023-03-21T09:16:57;8.75;;;4.78;;
1446;SDS011;717;51.522;7.266;2023-03-21T09:19:28;8.35;;;5.13;;
1446;SDS011;717;51.522;7.266;2023-03-21T09:22:01;11.10;;;5.32;;
1446;SDS011;717;51.522;7.266;2023-03-21T09:24:30;10.15;;;4.63;;
1446;SDS011;717;51.522;7.266;2023-03-21T09:26:58;8.43;;;4.53;;
1446;SDS011;717;51.522;7.266;2023-03-21T09:29:27;10.40;;;5.28;;
1446;SDS011;717;51.522;7.266;2023-03-21T09:31:56;7.05;;;4.85;;
1446;SDS011;717;51.522;7.266;2023-03-21T09:34:25;10.27;;;5.20;;
1446;SDS011;717;51.522;7.266;2023-03-21T09:36:54;9.93;;;4.65;;
1446;SDS011;717;51.522;7.266;2023-03-21T09:39:26;9.93;;;5.72;;
1446;SDS011;717;51.522;7.266;2023-03-21T09:42:07;8.38;;;5.60;;
1446;SDS011;717;51.522;7.266;2023-03-21T09:44:47;8.48;;;5.90;;
1446;SDS011;717;51.522;7.266;2023-03-21T09:47:30;9.18;;;5.93;;
1446;SDS011;717;51.522;7.266;2023-03-21T09:50:10;7.88;;;5.65;;
1446;SDS011;717;51.522;7.266;2023-03-21T09:52:45;6.45;;;5.43;;
1446;SDS011;717;51.522;7.266;2023-03-21T09:55:20;10.20;;;5.97;;
1446;SDS011;717;51.522;7.266;2023-03-21T09:57:52;7.10;;;5.00;;
1446;SDS011;717;51.522;7.266;2023-03-21T10:00:31;9.32;;;5.25;;
1446;SDS011;717;51.522;7.266;2023-03-21T10:03:04;6.63;;;4.65;;
1446;SDS011;717;51.522;7.266;2023-03-21T10:05:39;7.45;;;4.70;;
1446;SDS011;717;51.522;7.266;2023-03-21T10:08:12;8.32;;;4.45;;
1446;SDS011;717;51.522;7.266;2023-03-21T10:10:49;7.03;;;3.92;;
1446;SDS011;717;51.522;7.266;2023-03-21T10:13:20;7.35;;;4.55;;
1446;SDS011;717;51.522;7.266;2023-03-21T10:15:53;7.72;;;4.57;;
1446;SDS011;717;51.522;7.266;2023-03-21T10:18:24;6.75;;;4.40;;
1446;SDS011;717;51.522;7.266;2023-03-21T10:20:56;7.53;;;4.03;;
1446;SDS011;717;51.522;7.266;2023-03-21T10:23:25;6.95;;;4.50;;
1446;SDS011;717;51.522;7.266;2023-03-21T10:26:00;5.57;;;3.92;;
1446;SDS011;717;51.522;7.266;2023-03-21T10:28:33;8.50;;;3.70;;
1446;SDS011;717;51.522;7.266;2023-03-21T10:31:05;7.28;;;4.35;;
1446;SDS011;717;51.522;7.266;2023-03-21T10:33:36;6.75;;;3.60;;
1446;SDS011;717;51.522;7.266;2023-03-21T10:36:07;6.85;;;4.10;;
1446;SDS011;717;51.522;7.266;2023-03-21T10:38:38;6.00;;;3.72;;
1446;SDS011;717;51.522;7.266;2023-03-21T10:41:14;6.35;;;3.42;;
1446;SDS011;717;51.522;7.266;2023-03-21T10:43:44;6.30;;;3.63;;
1446;SDS011;717;51.522;7.266;2023-03-21T10:46:16;5.35;;;3.20;;
1446;SDS011;717;51.522;7.266;2023-03-21T10:48:50;5.18;;;3.20;;
1446;SDS011;717;51.522;7.266;2023-03-21T10:51:20;3.95;;;2.83;;
1446;SDS011;717;51.522;7.266;2023-03-21T10:53:51;5.47;;;3.00;;
1446;SDS011;717;51.522;7.266;2023-03-21T10:56:25;4.18;;;3.03;;
1446;SDS011;717;51.522;7.266;2023-03-21T10:58:55;6.43;;;3.20;;
1446;SDS011;717;51.522;7.266;2023-03-21T11:01:27;5.97;;;2.97;;
1446;SDS011;717;51.522;7.266;2023-03-21T11:04:04;6.03;;;3.40;;
1446;SDS011;717;51.522;7.266;2023-03-21T11:06:36;5.85;;;2.50;;
1446;SDS011;717;51.522;7.266;2023-03-21T11:09:07;6.28;;;2.58;;
1446;SDS011;717;51.522;7.266;2023-03-21T11:11:47;4.05;;;2.63;;
1446;SDS011;717;51.522;7.266;2023-03-21T11:14:25;9.07;;;2.92;;
1446;SDS011;717;51.522;7.266;2023-03-21T11:16:59;4.90;;;3.15;;
1446;SDS011;717;51.522;7.266;2023-03-21T11:19:29;5.90;;;3.03;;
1446;SDS011;717;51.522;7.266;2023-03-21T11:22:03;5.82;;;2.63;;
1446;SDS011;717;51.522;7.266;2023-03-21T11:24:34;6.45;;;2.80;;
1446;SDS011;717;51.522;7.266;2023-03-21T11:27:07;4.95;;;3.03;;
1446;SDS011;717;51.522;7.266;2023-03-21T11:29:36;5.93;;;2.88;;
1446;SDS011;717;51.522;7.266;2023-03-21T11:32:10;5.20;;;2.83;;
1446;SDS011;717;51.522;7.266;2023-03-21T11:34:43;6.50;;;3.22;;
1446;SDS011;717;51.522;7.266;2023-03-21T11:37:19;6.22;;;3.00;;
1446;SDS011;717;51.522;7.266;2023-03-21T11:39:59;7.22;;;3.55;;
1446;SDS011;717;51.522;7.266;2023-03-21T11:42:42;6.63;;;2.90;;
1446;SDS011;717;51.522;7.266;2023-03-21T11:45:13;11.05;;;3.40;;
1446;SDS011;717;51.522;7.266;2023-03-21T11:47:43;5.22;;;3.10;;
1446;SDS011;717;51.522;7.266;2023-03-21T11:50:17;6.20;;;3.05;;
1446;SDS011;717;51.522;7.266;2023-03-21T11:52:51;6.78;;;3.22;;
1446;SDS011;717;51.522;7.266;2023-03-21T11:55:40;4.28;;;2.60;;
1446;SDS011;717;51.522;7.266;2023-03-21T11:58:26;5.47;;;2.75;;
1446;SDS011;717;51.522;7.266;2023-03-21T12:01:06;5.30;;;2.75;;
1446;SDS011;717;51.522;7.266;2023-03-21T12:03:47;6.60;;;2.70;;
1446;SDS011;717;51.522;7.266;2023-03-21T12:06:27;5.13;;;2.70;;
1446;SDS011;717;51.522;7.266;2023-03-21T12:09:06;5.60;;;2.70;;
1446;SDS011;717;51.522;7.266;2023-03-21T12:11:59;5.03;;;2.38;;
1446;SDS011;717;51.522;7.266;2023-03-21T12:14:38;4.47;;;2.38;;
1446;SDS011;717;51.522;7.266;2023-03-21T12:17:17;4.60;;;2.20;;
1446;SDS011;717;51.522;7.266;2023-03-21T12:20:00;7.32;;;2.70;;
1446;SDS011;717;51.522;7.266;2023-03-21T12:22:40;3.35;;;2.15;;
1446;SDS011;717;51.522;7.266;2023-03-21T12:25:18;7.05;;;3.05;;
1446;SDS011;717;51.522;7.266;2023-03-21T12:27:55;5.85;;;2.40;;
1446;SDS011;717;51.522;7.266;2023-03-21T12:30:36;3.88;;;2.30;;
1446;SDS011;717;51.522;7.266;2023-03-21T12:33:16;5.65;;;2.78;;
1446;SDS011;717;51.522;7.266;2023-03-21T12:35:59;6.32;;;2.42;;
1446;SDS011;717;51.522;7.266;2023-03-21T12:38:39;4.13;;;2.22;;
1446;SDS011;717;51.522;7.266;2023-03-21T12:41:15;3.95;;;2.00;;
1446;SDS011;717;51.522;7.266;2023-03-21T12:43:50;4.30;;;2.00;;
1446;SDS011;717;51.522;7.266;2023-03-21T12:46:26;6.68;;;2.40;;
1446;SDS011;717;51.522;7.266;2023-03-21T12:49:01;4.30;;;2.10;;
1446;SDS011;717;51.522;7.266;2023-03-21T12:51:34;5.53;;;2.60;;
1446;SDS011;717;51.522;7.266;2023-03-21T12:54:07;3.83;;;2.75;;
1446;SDS011;717;51.522;7.266;2023-03-21T12:56:46;3.03;;;2.10;;
1446;SDS011;717;51.522;7.266;2023-03-21T12:59:30;6.13;;;2.35;;
1446;SDS011;717;51.522;7.266;2023-03-21T13:02:09;3.67;;;1.70;;
1446;SDS011;717;51.522;7.266;2023-03-21T13:04:46;3.67;;;1.75;;
1446;SDS011;717;51.522;7.266;2023-03-21T13:07:24;6.40;;;2.13;;
1446;SDS011;717;51.522;7.266;2023-03-21T13:09:56;4.30;;;2.08;;
1446;SDS011;717;51.522;7.266;2023-03-21T13:12:40;3.72;;;2.25;;
1446;SDS011;717;51.522;7.266;2023-03-21T13:15:21;3.95;;;2.40;;
1446;SDS011;717;51.522;7.266;2023-03-21T13:18:15;5.07;;;2.88;;
1446;SDS011;717;51.522;7.266;2023-03-21T13:20:56;3.95;;;1.73;;
1446;SDS011;717;51.522;7.266;2023-03-21T13:23:32;4.40;;;1.80;;
1446;SDS011;717;51.522;7.266;2023-03-21T13:26:02;4.10;;;2.22;;
1446;SDS011;717;51.522;7.266;2023-03-21T13:28:37;2.55;;;2.17;;
1446;SDS011;717;51.522;7.266;2023-03-21T13:31:14;3.20;;;2.47;;
1446;SDS011;717;51.522;7.266;2023-03-21T13:33:49;3.20;;;2.20;;
1446;SDS011;717;51.522;7.266;2023-03-21T13:36:21;2.55;;;2.10;;
1446;SDS011;717;51.522;7.266;2023-03-21T13:38:52;2.75;;;2.00;;
1446;SDS011;717;51.522;7.266;2023-03-21T13:41:27;4.13;;;2.10;;
1446;SDS011;717;51.522;7.266;2023-03-21T13:44:05;4.10;;;2.03;;
1446;SDS011;717;51.522;7.266;2023-03-21T13:46:43;4.60;;;2.05;;
1446;SDS011;717;51.522;7.266;2023-03-21T13:49:27;5.85;;;2.15;;
1446;SDS011;717;51.522;7.266;2023-03-21T13:51:58;4.65;;;2.38;;
1446;SDS011;717;51.522;7.266;2023-03-21T13:54:28;2.42;;;2.20;;
1446;SDS011;717;51.522;7.266;2023-03-21T13:57:20;4.80;;;2.15;;
1446;SDS011;717;51.522;7.266;2023-03-21T14:02:55;3.85;;;2.42;;
1446;SDS011;717;51.522;7.266;2023-03-21T14:05:30;3.70;;;2.28;;
1446;SDS011;717;51.522;7.266;2023-03-21T14:07:59;4.00;;;2.28;;
1446;SDS011;717;51.522;7.266;2023-03-21T14:10:32;4.40;;;2.53;;
1446;SDS011;717;51.522;7.266;2023-03-21T14:13:03;3.83;;;2.38;;
1446;SDS011;717;51.522;7.266;2023-03-21T14:15:36;4.15;;;2.47;;
1446;SDS011;717;51.522;7.266;2023-03-21T14:18:12;3.83;;;2.55;;
1446;SDS011;717;51.522;7.266;2023-03-21T14:20:50;3.13;;;2.20;;
1446;SDS011;717;51.522;7.266;2023-03-21T14:23:19;3.25;;;2.85;;
1446;SDS011;717;51.522;7.266;2023-03-21T14:25:48;2.58;;;2.10;;
1446;SDS011;717;51.522;7.266;2023-03-21T14:28:19;3.78;;;2.60;;
1446;SDS011;717;51.522;7.266;2023-03-21T14:30:53;3.97;;;2.75;;
1446;SDS011;717;51.522;7.266;2023-03-21T14:33:25;3.45;;;2.60;;
1446;SDS011;717;51.522;7.266;2023-03-21T14:35:58;3.15;;;2.65;;
1446;SDS011;717;51.522;7.266;2023-03-21T14:38:31;3.35;;;2.28;;
1446;SDS011;717;51.522;7.266;2023-03-21T14:41:02;3.58;;;2.70;;
1446;SDS011;717;51.522;7.266;2023-03-21T14:43:31;4.57;;;2.90;;
1446;SDS011;717;51.522;7.266;2023-03-21T14:46:00;3.67;;;2.50;;
1446;SDS011;717;51.522;7.266;2023-03-21T14:48:29;4.07;;;2.50;;
1446;SDS011;717;51.522;7.266;2023-03-21T14:51:03;3.17;;;2.40;;
1446;SDS011;717;51.522;7.266;2023-03-21T14:53:34;4.57;;;2.75;;
1446;SDS011;717;51.522;7.266;2023-03-21T14:56:05;3.47;;;2.25;;
1446;SDS011;717;51.522;7.266;2023-03-21T14:58:45;4.03;;;2.42;;
1446;SDS011;717;51.522;7.266;2023-03-21T15:01:15;3.08;;;2.25;;
1446;SDS011;717;51.522;7.266;2023-03-21T15:03:48;3.83;;;2.45;;
1446;SDS011;717;51.522;7.266;2023-03-21T15:06:20;4.18;;;2.83;;
1446;SDS011;717;51.522;7.266;2023-03-21T15:08:52;3.63;;;2.25;;
1446;SDS011;717;51.522;7.266;2023-03-21T15:11:28;4.05;;;2.38;;
1446;SDS011;717;51.522;7.266;2023-03-21T15:13:58;3.08;;;2.40;;
1446;SDS011;717;51.522;7.266;2023-03-21T15:16:28;3.78;;;2.70;;
1446;SDS011;717;51.522;7.266;2023-03-21T15:18:58;3.00;;;2.38;;
1446;SDS011;717;51.522;7.266;2023-03-21T15:21:33;3.63;;;2.50;;
1446;SDS011;717;51.522;7.266;2023-03-21T15:24:05;4.40;;;2.70;;
1446;SDS011;717;51.522;7.266;2023-03-21T15:26:39;4.63;;;2.42;;
1446;SDS011;717;51.522;7.266;2023-03-21T15:29:12;4.20;;;2.75;;
1446;SDS011;717;51.522;7.266;2023-03-21T15:31:42;4.60;;;2.78;;
1446;SDS011;717;51.522;7.266;2023-03-21T15:34:17;3.50;;;2.42;;
1446;SDS011;717;51.522;7.266;2023-03-21T15:36:53;3.47;;;2.40;;
1446;SDS011;717;51.522;7.266;2023-03-21T15:39:25;3.78;;;2.45;;
1446;SDS011;717;51.522;7.266;2023-03-21T15:41:59;4.07;;;2.60;;
1446;SDS011;717;51.522;7.266;2023-03-21T15:44:31;4.13;;;2.97;;
1446;SDS011;717;51.522;7.266;2023-03-21T15:47:01;2.67;;;2.47;;
1446;SDS011;717;51.522;7.266;2023-03-21T15:49:30;4.10;;;2.58;;
1446;SDS011;717;51.522;7.266;2023-03-21T15:52:04;3.90;;;2.58;;
1446;SDS011;717;51.522;7.266;2023-03-21T15:54:40;4.43;;;2.50;;
1446;SDS011;717;51.522;7.266;2023-03-21T15:57:18;4.47;;;2.35;;
1446;SDS011;717;51.522;7.266;2023-03-21T15:59:49;2.83;;;2.10;;
1446;SDS011;717;51.522;7.266;2023-03-21T16:02:23;3.97;;;2.60;;